ANA675 RJTT-RJOA
Flight info
| Callsign | ANA675 |
|---|---|
| Flight time | 1h 11m |
| Altitude | 36000 |
| Route | TIARA GUSRO Y20 KAMMY Y202 AMURO |
| Aircraft | A321/M-SDE3FGHIRWY/LB1 |
Departure
| Time | 2026-04-30 12:21 |
|---|---|
| Airport | Tokyo Haneda International Airport (RJTT) |
Arrival
| Time | 2026-04-30 13:33 |
|---|---|
| Airport | Hiroshima Airport (RJOA) |
| Time | Latitude | Longitude | Altitude | Speed | Heading |
|---|---|---|---|---|---|
| 2026-04-30 11:44 | 35.55742 | 139.78763 | 24 ft | 0 kts | 59° |
| 2026-04-30 12:12 | 35.55743 | 139.78764 | 24 ft | 1 kts | 59° |
| 2026-04-30 12:12 | 35.55758 | 139.78797 | 24 ft | 8 kts | 59° |
| 2026-04-30 12:12 | 35.55764 | 139.78856 | 24 ft | 5 kts | 131° |
| 2026-04-30 12:13 | 35.55732 | 139.78881 | 26 ft | 6 kts | 149° |
| 2026-04-30 12:13 | 35.55701 | 139.78903 | 26 ft | 4 kts | 149° |
| 2026-04-30 12:13 | 35.55672 | 139.78924 | 26 ft | 6 kts | 150° |
| 2026-04-30 12:13 | 35.55630 | 139.78954 | 30 ft | 8 kts | 149° |
| 2026-04-30 12:14 | 35.55577 | 139.78992 | 26 ft | 10 kts | 152° |
| 2026-04-30 12:14 | 35.55511 | 139.79038 | 29 ft | 12 kts | 150° |
| 2026-04-30 12:14 | 35.55434 | 139.79093 | 28 ft | 12 kts | 150° |
| 2026-04-30 12:14 | 35.55365 | 139.79142 | 27 ft | 10 kts | 150° |
| 2026-04-30 12:15 | 35.55308 | 139.79181 | 27 ft | 8 kts | 150° |
| 2026-04-30 12:15 | 35.55263 | 139.79214 | 27 ft | 7 kts | 150° |
| 2026-04-30 12:15 | 35.55202 | 139.79257 | 29 ft | 15 kts | 150° |
| 2026-04-30 12:15 | 35.55114 | 139.79354 | 26 ft | 17 kts | 99° |
| 2026-04-30 12:16 | 35.55090 | 139.79463 | 27 ft | 12 kts | 143° |
| 2026-04-30 12:16 | 35.55024 | 139.79511 | 27 ft | 11 kts | 150° |
| 2026-04-30 12:16 | 35.54939 | 139.79571 | 30 ft | 9 kts | 150° |
| 2026-04-30 12:16 | 35.54885 | 139.79610 | 28 ft | 10 kts | 149° |
| 2026-04-30 12:17 | 35.54697 | 139.79744 | 26 ft | 22 kts | 150° |
| 2026-04-30 12:17 | 35.54572 | 139.79832 | 24 ft | 20 kts | 150° |
| 2026-04-30 12:17 | 35.54456 | 139.79914 | 22 ft | 18 kts | 150° |
| 2026-04-30 12:18 | 35.54360 | 139.79982 | 22 ft | 14 kts | 150° |
| 2026-04-30 12:18 | 35.54294 | 139.80029 | 24 ft | 8 kts | 150° |
| 2026-04-30 12:18 | 35.54266 | 139.80061 | 23 ft | 3 kts | 117° |
| 2026-04-30 12:18 | 35.54264 | 139.80073 | 21 ft | 3 kts | 101° |
| 2026-04-30 12:19 | 35.54283 | 139.80131 | 24 ft | 6 kts | 59° |
| 2026-04-30 12:19 | 35.54290 | 139.80147 | 24 ft | 0 kts | 60° |
| 2026-04-30 12:19 | 35.54292 | 139.80150 | 24 ft | 0 kts | 60° |
| 2026-04-30 12:19 | 35.54302 | 139.80172 | 27 ft | 11 kts | 62° |
| 2026-04-30 12:20 | 35.54349 | 139.80241 | 28 ft | 8 kts | 10° |
| 2026-04-30 12:20 | 35.54378 | 139.80224 | 28 ft | 2 kts | 331° |
| 2026-04-30 12:20 | 35.54382 | 139.80221 | 28 ft | 0 kts | 331° |
| 2026-04-30 12:20 | 35.54389 | 139.80216 | 28 ft | 7 kts | 330° |
| 2026-04-30 12:21 | 35.54661 | 139.80024 | 29 ft | 81 kts | 329° |
| 2026-04-30 12:21 | 35.55328 | 139.79550 | 28 ft | 138 kts | 330° |
| 2026-04-30 12:21 | 35.56269 | 139.78881 | 238 ft | 166 kts | 329° |
| 2026-04-30 12:21 | 35.57275 | 139.78192 | 941 ft | 165 kts | 332° |
| 2026-04-30 12:22 | 35.58401 | 139.78060 | 1497 ft | 169 kts | 20° |
| 2026-04-30 12:22 | 35.59397 | 139.78811 | 1963 ft | 175 kts | 39° |
| 2026-04-30 12:22 | 35.60384 | 139.79833 | 2147 ft | 196 kts | 41° |
| 2026-04-30 12:22 | 35.61454 | 139.80977 | 2399 ft | 213 kts | 42° |
| 2026-04-30 12:23 | 35.62661 | 139.82245 | 2518 ft | 246 kts | 41° |
| 2026-04-30 12:23 | 35.64019 | 139.83646 | 3093 ft | 259 kts | 41° |
| 2026-04-30 12:23 | 35.65641 | 139.84679 | 3874 ft | 271 kts | 18° |
| 2026-04-30 12:23 | 35.67503 | 139.85174 | 4717 ft | 276 kts | 13° |
| 2026-04-30 12:24 | 35.69425 | 139.85473 | 5479 ft | 284 kts | 358° |
| 2026-04-30 12:24 | 35.71343 | 139.84878 | 6250 ft | 288 kts | 331° |
| 2026-04-30 12:24 | 35.73001 | 139.83490 | 7051 ft | 289 kts | 320° |
| 2026-04-30 12:24 | 35.74437 | 139.81819 | 7829 ft | 287 kts | 304° |
| 2026-04-30 12:25 | 35.75474 | 139.79731 | 8642 ft | 284 kts | 289° |
| 2026-04-30 12:25 | 35.76029 | 139.77430 | 9471 ft | 279 kts | 274° |
| 2026-04-30 12:25 | 35.76252 | 139.75059 | 10278 ft | 278 kts | 269° |
| 2026-04-30 12:25 | 35.76130 | 139.72696 | 10960 ft | 277 kts | 255° |
| 2026-04-30 12:26 | 35.75512 | 139.70449 | 11616 ft | 281 kts | 243° |
| 2026-04-30 12:26 | 35.74579 | 139.68228 | 11808 ft | 303 kts | 241° |
| 2026-04-30 12:26 | 35.73560 | 139.65845 | 11923 ft | 326 kts | 242° |
| 2026-04-30 12:26 | 35.72481 | 139.63325 | 12331 ft | 337 kts | 242° |
| 2026-04-30 12:27 | 35.71379 | 139.60748 | 12945 ft | 343 kts | 243° |
| 2026-04-30 12:27 | 35.70264 | 139.58137 | 13572 ft | 347 kts | 243° |
| 2026-04-30 12:27 | 35.69136 | 139.55493 | 14181 ft | 352 kts | 243° |
| 2026-04-30 12:27 | 35.67997 | 139.52818 | 14767 ft | 354 kts | 243° |
| 2026-04-30 12:28 | 35.66866 | 139.50113 | 15366 ft | 357 kts | 246° |
| 2026-04-30 12:28 | 35.66074 | 139.47224 | 15960 ft | 358 kts | 258° |
| 2026-04-30 12:28 | 35.65785 | 139.44181 | 16559 ft | 359 kts | 269° |
| 2026-04-30 12:28 | 35.65834 | 139.41106 | 17162 ft | 361 kts | 271° |
| 2026-04-30 12:29 | 35.65887 | 139.38014 | 17777 ft | 362 kts | 270° |
| 2026-04-30 12:29 | 35.65939 | 139.34909 | 18357 ft | 364 kts | 270° |
| 2026-04-30 12:29 | 35.65988 | 139.31792 | 18867 ft | 365 kts | 270° |
| 2026-04-30 12:29 | 35.66039 | 139.28669 | 19373 ft | 366 kts | 270° |
| 2026-04-30 12:30 | 35.66089 | 139.25583 | 19893 ft | 365 kts | 270° |
| 2026-04-30 12:30 | 35.66140 | 139.22478 | 20399 ft | 365 kts | 269° |
| 2026-04-30 12:30 | 35.66188 | 139.19354 | 20907 ft | 365 kts | 269° |
| 2026-04-30 12:30 | 35.66232 | 139.16277 | 21400 ft | 365 kts | 269° |
| 2026-04-30 12:31 | 35.66263 | 139.13155 | 21889 ft | 365 kts | 268° |
| 2026-04-30 12:31 | 35.66206 | 139.10033 | 22388 ft | 365 kts | 266° |
| 2026-04-30 12:31 | 35.66076 | 139.06910 | 22892 ft | 365 kts | 264° |
| 2026-04-30 12:31 | 35.65911 | 139.03796 | 23406 ft | 365 kts | 264° |
| 2026-04-30 12:32 | 35.65736 | 139.00677 | 23882 ft | 366 kts | 264° |
| 2026-04-30 12:32 | 35.65565 | 138.97556 | 24281 ft | 366 kts | 264° |
| 2026-04-30 12:32 | 35.65407 | 138.94428 | 24650 ft | 368 kts | 264° |
| 2026-04-30 12:32 | 35.65258 | 138.91283 | 24987 ft | 369 kts | 264° |
| 2026-04-30 12:33 | 35.65116 | 138.88133 | 25350 ft | 370 kts | 264° |
| 2026-04-30 12:33 | 35.64975 | 138.84977 | 25680 ft | 371 kts | 264° |
| 2026-04-30 12:33 | 35.64834 | 138.81800 | 25995 ft | 373 kts | 264° |
| 2026-04-30 12:33 | 35.64690 | 138.78608 | 26354 ft | 375 kts | 264° |
| 2026-04-30 12:34 | 35.64546 | 138.75406 | 26725 ft | 375 kts | 263° |
| 2026-04-30 12:34 | 35.64396 | 138.72198 | 27057 ft | 376 kts | 263° |
| 2026-04-30 12:34 | 35.64241 | 138.68983 | 27397 ft | 378 kts | 263° |
| 2026-04-30 12:34 | 35.64084 | 138.65753 | 27732 ft | 379 kts | 263° |
| 2026-04-30 12:35 | 35.63922 | 138.62515 | 28032 ft | 381 kts | 263° |
| 2026-04-30 12:35 | 35.63755 | 138.59260 | 28340 ft | 382 kts | 263° |
| 2026-04-30 12:35 | 35.63583 | 138.55995 | 28623 ft | 383 kts | 263° |
| 2026-04-30 12:35 | 35.63408 | 138.52723 | 28915 ft | 385 kts | 262° |
| 2026-04-30 12:36 | 35.63232 | 138.49441 | 29211 ft | 386 kts | 262° |
| 2026-04-30 12:36 | 35.63055 | 138.46142 | 29491 ft | 387 kts | 262° |
| 2026-04-30 12:36 | 35.62876 | 138.42837 | 29765 ft | 389 kts | 262° |
| 2026-04-30 12:36 | 35.62699 | 138.39512 | 30014 ft | 390 kts | 262° |
| 2026-04-30 12:37 | 35.62521 | 138.36183 | 30269 ft | 391 kts | 262° |
| 2026-04-30 12:37 | 35.62344 | 138.32863 | 30600 ft | 389 kts | 262° |
| 2026-04-30 12:37 | 35.62169 | 138.29554 | 30942 ft | 387 kts | 262° |
| 2026-04-30 12:37 | 35.61994 | 138.26266 | 31352 ft | 384 kts | 262° |
| 2026-04-30 12:38 | 35.61818 | 138.23013 | 31786 ft | 380 kts | 262° |
| 2026-04-30 12:38 | 35.61636 | 138.19786 | 32113 ft | 379 kts | 262° |
| 2026-04-30 12:38 | 35.61285 | 138.13453 | 32146 ft | 365 kts | 262° |
| 2026-04-30 12:39 | 35.60936 | 138.07266 | 32148 ft | 362 kts | 261° |
| 2026-04-30 12:39 | 35.60585 | 138.01109 | 32132 ft | 361 kts | 261° |
| 2026-04-30 12:40 | 35.60230 | 137.94947 | 32122 ft | 362 kts | 261° |
| 2026-04-30 12:40 | 35.59878 | 137.88781 | 32124 ft | 362 kts | 261° |
| 2026-04-30 12:41 | 35.59522 | 137.82660 | 32114 ft | 362 kts | 261° |
| 2026-04-30 12:41 | 35.59144 | 137.76455 | 32094 ft | 362 kts | 260° |
| 2026-04-30 12:42 | 35.58689 | 137.70348 | 32099 ft | 361 kts | 259° |
| 2026-04-30 12:42 | 35.58213 | 137.64200 | 32101 ft | 362 kts | 259° |
| 2026-04-30 12:43 | 35.57743 | 137.58042 | 32087 ft | 362 kts | 259° |
| 2026-04-30 12:43 | 35.57157 | 137.51917 | 32076 ft | 358 kts | 253° |
| 2026-04-30 12:44 | 35.55868 | 137.46021 | 32065 ft | 358 kts | 251° |
| 2026-04-30 12:44 | 35.54569 | 137.40115 | 32064 ft | 359 kts | 251° |
| 2026-04-30 12:45 | 35.53274 | 137.34197 | 32055 ft | 359 kts | 251° |
| 2026-04-30 12:45 | 35.51965 | 137.28279 | 32052 ft | 359 kts | 251° |
| 2026-04-30 12:46 | 35.50661 | 137.22358 | 32053 ft | 359 kts | 251° |
| 2026-04-30 12:46 | 35.49571 | 137.17442 | 32049 ft | 359 kts | 251° |
| 2026-04-30 12:47 | 35.48258 | 137.11526 | 32051 ft | 359 kts | 251° |
| 2026-04-30 12:47 | 35.46945 | 137.05614 | 32050 ft | 359 kts | 251° |
| 2026-04-30 12:48 | 35.45630 | 136.99708 | 32069 ft | 359 kts | 251° |
| 2026-04-30 12:48 | 35.44315 | 136.93807 | 32059 ft | 359 kts | 251° |
| 2026-04-30 12:49 | 35.42989 | 136.87911 | 32048 ft | 359 kts | 251° |
| 2026-04-30 12:49 | 35.41666 | 136.82015 | 32047 ft | 359 kts | 251° |
| 2026-04-30 12:50 | 35.40341 | 136.76120 | 32045 ft | 359 kts | 250° |
| 2026-04-30 12:50 | 35.39019 | 136.70222 | 32043 ft | 359 kts | 250° |
| 2026-04-30 12:51 | 35.37691 | 136.64321 | 32037 ft | 359 kts | 250° |
| 2026-04-30 12:51 | 35.36351 | 136.58425 | 32038 ft | 359 kts | 250° |
| 2026-04-30 12:52 | 35.35010 | 136.52528 | 32030 ft | 359 kts | 249° |
| 2026-04-30 12:52 | 35.33663 | 136.46640 | 32028 ft | 359 kts | 250° |
| 2026-04-30 12:53 | 35.32316 | 136.40752 | 32024 ft | 359 kts | 250° |
| 2026-04-30 12:53 | 35.30971 | 136.34905 | 32016 ft | 360 kts | 249° |
| 2026-04-30 12:54 | 35.29605 | 136.29008 | 31995 ft | 361 kts | 249° |
| 2026-04-30 12:54 | 35.28240 | 136.23074 | 31992 ft | 363 kts | 249° |
| 2026-04-30 12:55 | 35.26874 | 136.17134 | 32037 ft | 362 kts | 250° |
| 2026-04-30 12:55 | 35.25510 | 136.11222 | 32025 ft | 360 kts | 249° |
| 2026-04-30 12:56 | 35.24143 | 136.05330 | 32020 ft | 360 kts | 249° |
| 2026-04-30 12:56 | 35.22774 | 135.99449 | 32013 ft | 359 kts | 249° |
| 2026-04-30 12:57 | 35.21406 | 135.93578 | 32005 ft | 359 kts | 249° |
| 2026-04-30 12:57 | 35.20037 | 135.87705 | 31998 ft | 359 kts | 249° |
| 2026-04-30 12:58 | 35.18664 | 135.81831 | 31989 ft | 359 kts | 249° |
| 2026-04-30 12:58 | 35.17423 | 135.75900 | 31980 ft | 362 kts | 252° |
| 2026-04-30 12:59 | 35.16452 | 135.69863 | 31977 ft | 362 kts | 253° |
| 2026-04-30 12:59 | 35.15505 | 135.63812 | 31974 ft | 362 kts | 253° |
| 2026-04-30 13:00 | 35.14510 | 135.57776 | 31969 ft | 362 kts | 253° |
| 2026-04-30 13:00 | 35.13482 | 135.51757 | 31963 ft | 362 kts | 253° |
| 2026-04-30 13:01 | 35.12450 | 135.45741 | 31994 ft | 361 kts | 252° |
| 2026-04-30 13:01 | 35.11428 | 135.39735 | 31988 ft | 360 kts | 252° |
| 2026-04-30 13:02 | 35.10406 | 135.33743 | 31974 ft | 360 kts | 252° |
| 2026-04-30 13:02 | 35.09379 | 135.27752 | 31958 ft | 361 kts | 253° |
| 2026-04-30 13:03 | 35.08344 | 135.21754 | 31959 ft | 361 kts | 252° |
| 2026-04-30 13:03 | 35.07311 | 135.15803 | 31972 ft | 361 kts | 252° |
| 2026-04-30 13:04 | 35.06274 | 135.09810 | 31948 ft | 361 kts | 252° |
| 2026-04-30 13:04 | 35.05232 | 135.03816 | 31941 ft | 360 kts | 253° |
| 2026-04-30 13:05 | 35.04189 | 134.97825 | 31970 ft | 361 kts | 252° |
| 2026-04-30 13:06 | 35.02622 | 134.88843 | 31947 ft | 361 kts | 252° |
| 2026-04-30 13:06 | 35.01572 | 134.82857 | 31941 ft | 361 kts | 252° |
| 2026-04-30 13:07 | 35.00514 | 134.76871 | 31906 ft | 361 kts | 253° |
| 2026-04-30 13:07 | 34.99451 | 134.70884 | 31925 ft | 361 kts | 253° |
| 2026-04-30 13:08 | 34.98322 | 134.64923 | 31919 ft | 360 kts | 251° |
| 2026-04-30 13:08 | 34.97026 | 134.59029 | 31960 ft | 360 kts | 250° |
| 2026-04-30 13:09 | 34.95704 | 134.53153 | 31950 ft | 359 kts | 251° |
| 2026-04-30 13:09 | 34.94413 | 134.47272 | 31923 ft | 359 kts | 251° |
| 2026-04-30 13:10 | 34.93127 | 134.41392 | 31929 ft | 359 kts | 251° |
| 2026-04-30 13:10 | 34.91848 | 134.35509 | 31948 ft | 359 kts | 251° |
| 2026-04-30 13:11 | 34.90567 | 134.29629 | 31741 ft | 359 kts | 251° |
| 2026-04-30 13:11 | 34.89924 | 134.26680 | 31133 ft | 359 kts | 250° |
| 2026-04-30 13:11 | 34.89284 | 134.23761 | 30687 ft | 355 kts | 250° |
| 2026-04-30 13:11 | 34.88650 | 134.20881 | 30233 ft | 351 kts | 250° |
| 2026-04-30 13:12 | 34.88015 | 134.18015 | 29612 ft | 350 kts | 250° |
| 2026-04-30 13:12 | 34.87402 | 134.15227 | 29400 ft | 332 kts | 250° |
| 2026-04-30 13:12 | 34.86818 | 134.12560 | 28887 ft | 321 kts | 250° |
| 2026-04-30 13:13 | 34.85679 | 134.07386 | 27566 ft | 313 kts | 250° |
| 2026-04-30 13:13 | 34.85110 | 134.04828 | 27112 ft | 313 kts | 250° |
| 2026-04-30 13:13 | 34.83975 | 133.99735 | 26167 ft | 310 kts | 250° |
| 2026-04-30 13:14 | 34.83416 | 133.97216 | 25947 ft | 309 kts | 250° |
| 2026-04-30 13:14 | 34.82847 | 133.94663 | 25291 ft | 315 kts | 250° |
| 2026-04-30 13:14 | 34.81703 | 133.89530 | 24357 ft | 313 kts | 250° |
| 2026-04-30 13:15 | 34.81134 | 133.86980 | 23926 ft | 312 kts | 251° |
| 2026-04-30 13:15 | 34.79998 | 133.81916 | 23088 ft | 306 kts | 250° |
| 2026-04-30 13:15 | 34.79451 | 133.79472 | 22667 ft | 303 kts | 250° |
| 2026-04-30 13:16 | 34.78901 | 133.77014 | 22216 ft | 299 kts | 250° |
| 2026-04-30 13:16 | 34.78356 | 133.74580 | 21804 ft | 297 kts | 250° |
| 2026-04-30 13:16 | 34.77814 | 133.72167 | 21407 ft | 295 kts | 250° |
| 2026-04-30 13:17 | 34.76733 | 133.67374 | 20576 ft | 293 kts | 251° |
| 2026-04-30 13:17 | 34.76198 | 133.64995 | 20176 ft | 292 kts | 251° |
| 2026-04-30 13:17 | 34.75258 | 133.60847 | 19453 ft | 320 kts | 250° |
| 2026-04-30 13:18 | 34.74465 | 133.57355 | 18825 ft | 325 kts | 251° |
| 2026-04-30 13:18 | 34.73269 | 133.52057 | 17838 ft | 324 kts | 251° |
| 2026-04-30 13:18 | 34.72675 | 133.49422 | 17381 ft | 323 kts | 251° |
| 2026-04-30 13:19 | 34.72085 | 133.46794 | 16925 ft | 321 kts | 251° |
| 2026-04-30 13:19 | 34.71495 | 133.44178 | 16472 ft | 320 kts | 251° |
| 2026-04-30 13:19 | 34.70905 | 133.41578 | 16030 ft | 319 kts | 251° |
| 2026-04-30 13:19 | 34.70310 | 133.38978 | 15582 ft | 318 kts | 252° |
| 2026-04-30 13:20 | 34.69717 | 133.36392 | 15145 ft | 317 kts | 252° |
| 2026-04-30 13:20 | 34.69125 | 133.33823 | 14703 ft | 315 kts | 251° |
| 2026-04-30 13:20 | 34.68464 | 133.31293 | 14280 ft | 313 kts | 249° |
| 2026-04-30 13:20 | 34.67743 | 133.28807 | 13911 ft | 311 kts | 248° |
| 2026-04-30 13:21 | 34.66997 | 133.26341 | 13503 ft | 310 kts | 248° |
| 2026-04-30 13:21 | 34.66250 | 133.23885 | 13056 ft | 309 kts | 248° |
| 2026-04-30 13:21 | 34.65513 | 133.21439 | 12620 ft | 308 kts | 248° |
| 2026-04-30 13:22 | 34.64067 | 133.16543 | 11741 ft | 307 kts | 248° |
| 2026-04-30 13:22 | 34.63353 | 133.14108 | 11292 ft | 305 kts | 248° |
| 2026-04-30 13:22 | 34.61935 | 133.09265 | 10435 ft | 303 kts | 249° |
| 2026-04-30 13:23 | 34.61240 | 133.06892 | 10290 ft | 293 kts | 248° |
| 2026-04-30 13:23 | 34.59925 | 133.02405 | 9985 ft | 274 kts | 248° |
| 2026-04-30 13:24 | 34.58659 | 132.98107 | 9272 ft | 272 kts | 247° |
| 2026-04-30 13:24 | 34.57390 | 132.93830 | 8256 ft | 267 kts | 246° |
| 2026-04-30 13:25 | 34.56178 | 132.89659 | 6922 ft | 260 kts | 245° |
| 2026-04-30 13:25 | 34.54965 | 132.85546 | 5732 ft | 260 kts | 244° |
| 2026-04-30 13:26 | 34.53297 | 132.79903 | 5492 ft | 219 kts | 242° |
| 2026-04-30 13:26 | 34.52304 | 132.76535 | 5378 ft | 210 kts | 243° |
| 2026-04-30 13:27 | 34.51041 | 132.73414 | 5004 ft | 206 kts | 221° |
| 2026-04-30 13:28 | 34.47487 | 132.71702 | 4121 ft | 174 kts | 172° |
| 2026-04-30 13:28 | 34.45347 | 132.72656 | 3640 ft | 159 kts | 143° |
| 2026-04-30 13:28 | 34.44561 | 132.73553 | 3418 ft | 153 kts | 129° |
| 2026-04-30 13:29 | 34.43675 | 132.75802 | 2994 ft | 145 kts | 103° |
| 2026-04-30 13:29 | 34.43593 | 132.78247 | 2812 ft | 146 kts | 93° |
| 2026-04-30 13:30 | 34.43596 | 132.81877 | 2469 ft | 140 kts | 92° |
| 2026-04-30 13:31 | 34.43598 | 132.84193 | 2115 ft | 140 kts | 91° |
| 2026-04-30 13:31 | 34.43601 | 132.87724 | 1535 ft | 139 kts | 89° |
| 2026-04-30 13:32 | 34.43603 | 132.89636 | 1248 ft | 135 kts | 88° |
| 2026-04-30 13:32 | 34.43606 | 132.91674 | 1078 ft | 71 kts | 90° |
| 2026-04-30 13:33 | 34.43627 | 132.92192 | 1077 ft | 17 kts | 45° |
| 2026-04-30 13:33 | 34.43764 | 132.92183 | 1079 ft | 7 kts | 297° |
| 2026-04-30 13:34 | 34.43771 | 132.92127 | 1079 ft | 7 kts | 270° |
| 2026-04-30 13:34 | 34.43838 | 132.92004 | 1077 ft | 12 kts | 3° |
| 2026-04-30 13:35 | 34.43890 | 132.92005 | 1078 ft | 2 kts | 0° |
| 2026-04-30 13:35 | 34.43899 | 132.92005 | 1079 ft | 0 kts | 0° |